createdAt,value
2019-05-07T00:01:44.479Z,6.10
2019-05-07T00:04:12.882Z,6.10
2019-05-07T00:06:40.118Z,6.09
2019-05-07T00:09:08.676Z,6.09
2019-05-07T00:11:42.467Z,6.08
2019-05-07T00:14:09.429Z,6.07
2019-05-07T00:16:36.410Z,6.05
2019-05-07T00:19:03.783Z,6.03
2019-05-07T00:21:32.668Z,6.01
2019-05-07T00:23:59.663Z,5.98
2019-05-07T00:26:26.759Z,5.97
2019-05-07T00:28:53.723Z,5.96
2019-05-07T00:31:23.395Z,5.96
2019-05-07T00:34:12.610Z,5.97
2019-05-07T00:36:48.573Z,5.95
2019-05-07T00:39:32.768Z,5.93
2019-05-07T00:42:08.224Z,5.90
2019-05-07T00:44:55.023Z,5.88
2019-05-07T00:47:22.284Z,5.87
2019-05-07T00:49:49.257Z,5.84
2019-05-07T00:52:16.224Z,5.84
2019-05-07T00:54:44.829Z,5.82
2019-05-07T00:57:12.504Z,5.81
2019-05-07T00:59:42.948Z,5.79
2019-05-07T01:02:10.065Z,5.78
2019-05-07T01:04:37.109Z,5.76
2019-05-07T01:07:04.161Z,5.74
2019-05-07T01:09:32.408Z,5.71
2019-05-07T01:11:59.543Z,5.71
2019-05-07T01:14:26.512Z,5.67
2019-05-07T01:17:02.379Z,5.64
2019-05-07T01:19:29.604Z,5.62
2019-05-07T01:21:56.557Z,5.60
2019-05-07T01:24:23.556Z,5.56
2019-05-07T01:26:52.833Z,5.50
2019-05-07T01:29:19.476Z,5.44
2019-05-07T01:31:52.751Z,5.42
2019-05-07T01:34:32.242Z,5.40
2019-05-07T01:36:59.709Z,5.36
2019-05-07T01:39:46.210Z,5.33
2019-05-07T01:42:13.281Z,5.28
2019-05-07T01:44:42.034Z,5.22
2019-05-07T01:47:33.717Z,5.15
2019-05-07T01:50:03.086Z,5.11
2019-05-07T01:52:29.776Z,5.09
2019-05-07T01:54:56.863Z,5.12
2019-05-07T01:57:23.827Z,5.13
2019-05-07T01:59:52.718Z,5.17
2019-05-07T02:02:27.827Z,5.20
2019-05-07T02:05:16.000Z,5.24
2019-05-07T02:07:48.441Z,5.26
2019-05-07T02:10:22.836Z,5.27
2019-05-07T02:12:49.881Z,5.30
2019-05-07T02:15:16.922Z,5.34
2019-05-07T02:17:44.109Z,5.37
2019-05-07T02:20:13.041Z,5.40
2019-05-07T02:22:40.162Z,5.43
2019-05-07T02:25:07.132Z,5.43
2019-05-07T02:27:34.110Z,5.46
2019-05-07T02:30:04.094Z,5.46
2019-05-07T02:32:33.125Z,5.49
2019-05-07T02:34:58.958Z,5.49
2019-05-07T02:37:41.788Z,5.51
2019-05-07T02:40:09.480Z,5.50
2019-05-07T02:42:36.753Z,5.51
2019-05-07T02:45:13.667Z,5.52
2019-05-07T02:47:43.948Z,5.54
2019-05-07T02:50:22.770Z,5.55
2019-05-07T02:53:33.908Z,5.54
2019-05-07T02:56:03.732Z,5.53
2019-05-07T02:58:33.150Z,5.55
2019-05-07T03:01:06.189Z,5.58
2019-05-07T03:03:33.660Z,5.61
2019-05-07T03:06:02.980Z,5.63
2019-05-07T03:08:32.849Z,5.66
2019-05-07T03:10:58.968Z,5.67
2019-05-07T03:13:25.897Z,5.67
2019-05-07T03:15:54.028Z,5.69
2019-05-07T03:18:23.311Z,5.70
2019-05-07T03:20:55.503Z,5.70
2019-05-07T03:23:26.960Z,5.72
2019-05-07T03:26:14.617Z,5.71
2019-05-07T03:28:49.039Z,5.69
2019-05-07T03:31:46.915Z,5.73
2019-05-07T03:34:36.740Z,5.75
2019-05-07T03:37:06.118Z,5.75
2019-05-07T03:39:33.834Z,5.74
2019-05-07T03:42:03.427Z,5.73
2019-05-07T03:44:48.296Z,5.74
2019-05-07T03:47:18.053Z,5.74
2019-05-07T03:49:44.993Z,5.74
2019-05-07T03:52:13.642Z,5.75
2019-05-07T03:54:43.073Z,5.75
2019-05-07T03:57:11.558Z,5.76
2019-05-07T03:59:38.699Z,5.75
2019-05-07T04:02:05.760Z,5.77
2019-05-07T04:04:33.324Z,5.76
2019-05-07T04:07:03.406Z,5.78
2019-05-07T04:09:29.372Z,5.78
2019-05-07T04:11:57.423Z,5.79
2019-05-07T04:14:24.408Z,5.78
2019-05-07T04:16:53.524Z,5.77
2019-05-07T04:19:23.368Z,5.79
2019-05-07T04:21:49.197Z,5.81
2019-05-07T04:24:33.256Z,5.81
2019-05-07T04:27:07.611Z,5.83
2019-05-07T04:29:35.182Z,5.83
2019-05-07T04:32:03.342Z,5.85
2019-05-07T04:34:54.111Z,5.89
2019-05-07T04:37:23.787Z,5.90
2019-05-07T04:39:53.712Z,5.91
2019-05-07T04:42:24.291Z,5.96
2019-05-07T04:44:53.754Z,5.99
2019-05-07T04:47:36.977Z,6.05
2019-05-07T04:49:48.581Z,6.12
2019-05-07T04:52:23.918Z,6.18
2019-05-07T04:54:52.805Z,6.24
2019-05-07T04:57:26.019Z,6.28
2019-05-07T05:03:28.764Z,6.40
2019-05-07T05:05:55.899Z,6.47
2019-05-07T05:08:23.664Z,6.54
2019-05-07T05:10:53.817Z,6.60
2019-05-07T05:13:23.441Z,6.65
2019-05-07T05:15:52.778Z,6.71
2019-05-07T05:18:21.895Z,6.79
2019-05-07T05:21:17.381Z,6.88
2019-05-07T05:24:06.516Z,6.96
2019-05-07T05:26:33.519Z,7.04
2019-05-07T05:29:18.805Z,7.09
2019-05-07T05:31:45.817Z,7.16
2019-05-07T05:34:13.200Z,7.21
2019-05-07T05:36:42.382Z,7.25
2019-05-07T05:39:10.265Z,7.28
2019-05-07T05:41:39.123Z,7.29
2019-05-07T05:44:14.340Z,7.30
2019-05-07T05:46:42.845Z,7.35
2019-05-07T05:49:11.649Z,7.41
2019-05-07T05:52:09.077Z,7.44
2019-05-07T05:54:52.945Z,7.49
2019-05-07T05:57:39.673Z,7.53
2019-05-07T06:03:29.387Z,7.59
2019-05-07T06:06:12.776Z,7.61
2019-05-07T06:09:02.760Z,7.63
2019-05-07T06:11:49.484Z,7.65
2019-05-07T06:14:22.286Z,7.76
2019-05-07T06:16:56.923Z,7.83
2019-05-07T06:19:35.858Z,7.87
2019-05-07T06:22:28.490Z,7.94
2019-05-07T06:24:59.350Z,8.03
2019-05-07T06:27:26.342Z,8.15
2019-05-07T06:29:53.800Z,8.25
2019-05-07T06:32:22.946Z,8.37
2019-05-07T06:34:52.342Z,8.42
2019-05-07T06:37:38.145Z,8.48
2019-05-07T06:40:27.557Z,8.53
2019-05-07T06:43:12.469Z,8.60
2019-05-07T06:45:42.677Z,8.68
2019-05-07T06:48:09.633Z,8.69
2019-05-07T06:50:36.746Z,8.71
2019-05-07T06:53:04.074Z,8.76
2019-05-07T06:55:32.359Z,8.83
2019-05-07T06:58:02.576Z,8.94
2019-05-07T07:01:03.004Z,9.06
2019-05-07T07:03:54.389Z,9.10
2019-05-07T07:06:24.969Z,9.14
2019-05-07T07:09:36.951Z,9.18
2019-05-07T07:12:07.182Z,9.23
2019-05-07T07:14:34.147Z,9.34
2019-05-07T07:17:02.297Z,9.46
2019-05-07T07:19:29.428Z,9.68
2019-05-07T07:21:56.383Z,9.81
2019-05-07T07:24:25.151Z,9.93
2019-05-07T07:26:52.860Z,9.99
2019-05-07T07:29:22.084Z,10.01
2019-05-07T07:31:53.007Z,10.06
2019-05-07T07:34:22.600Z,10.08
2019-05-07T07:37:15.441Z,10.10
2019-05-07T07:39:39.631Z,10.20
2019-05-07T07:42:07.046Z,10.32
2019-05-07T07:44:33.996Z,10.43
2019-05-07T07:47:02.466Z,10.39
2019-05-07T07:49:37.207Z,10.40
2019-05-07T07:52:04.193Z,10.50
2019-05-07T07:54:49.673Z,10.51
2019-05-07T07:57:36.255Z,10.47
2019-05-07T08:00:16.010Z,10.35
2019-05-07T08:02:56.152Z,10.35
2019-05-07T08:05:23.219Z,10.37
2019-05-07T08:07:50.158Z,10.40
2019-05-07T08:10:17.399Z,10.48
2019-05-07T08:12:44.347Z,10.65
2019-05-07T08:15:18.152Z,10.81
2019-05-07T08:17:42.028Z,10.92
2019-05-07T08:20:12.773Z,11.08
2019-05-07T08:22:42.412Z,11.16
2019-05-07T08:25:09.717Z,11.12
2019-05-07T08:27:37.091Z,11.15
2019-05-07T08:30:04.862Z,11.33
2019-05-07T08:32:57.291Z,11.43
2019-05-07T08:35:33.475Z,11.49
2019-05-07T08:38:02.302Z,11.32
2019-05-07T08:40:29.482Z,11.30
2019-05-07T08:42:57.361Z,11.33
2019-05-07T08:45:43.275Z,11.35
2019-05-07T08:48:32.865Z,11.38
2019-05-07T08:50:59.844Z,11.38
2019-05-07T08:53:26.926Z,11.36
2019-05-07T08:55:53.997Z,11.41
2019-05-07T08:58:22.373Z,11.36
2019-05-07T09:00:49.551Z,11.36
2019-05-07T09:03:36.138Z,11.34
2019-05-07T09:06:03.152Z,11.28
2019-05-07T09:08:32.123Z,11.25
2019-05-07T09:11:01.780Z,11.21
2019-05-07T09:13:28.847Z,11.28
2019-05-07T09:15:55.798Z,11.31
2019-05-07T09:18:42.172Z,11.32
2019-05-07T09:21:09.280Z,11.42
2019-05-07T09:23:36.231Z,11.63
2019-05-07T09:26:04.859Z,11.81
2019-05-07T09:28:54.000Z,12.00
2019-05-07T09:31:28.478Z,12.14
2019-05-07T09:33:55.779Z,12.35
2019-05-07T09:36:28.607Z,12.43
2019-05-07T09:38:59.435Z,12.71
2019-05-07T09:41:26.739Z,12.88
2019-05-07T09:43:55.660Z,13.13
2019-05-07T09:46:22.750Z,13.50
2019-05-07T09:48:49.707Z,13.81
2019-05-07T09:51:17.932Z,13.95
2019-05-07T09:53:44.950Z,13.89
2019-05-07T09:56:12.341Z,13.67
2019-05-07T09:58:39.489Z,13.59
2019-05-07T10:01:06.573Z,13.58
2019-05-07T10:04:10.297Z,13.56
2019-05-07T10:06:37.404Z,13.48
2019-05-07T10:09:05.551Z,13.10
2019-05-07T10:11:41.372Z,12.96
2019-05-07T10:14:12.242Z,12.90
2019-05-07T10:16:52.390Z,12.70
2019-05-07T10:19:22.121Z,12.50
2019-05-07T10:21:48.594Z,12.38
2019-05-07T10:24:15.705Z,12.40
2019-05-07T10:26:42.917Z,12.39
2019-05-07T10:29:12.448Z,12.48
2019-05-07T10:31:39.143Z,12.60
2019-05-07T10:34:06.111Z,12.86
2019-05-07T10:36:33.067Z,13.05
2019-05-07T10:39:02.378Z,13.15
2019-05-07T10:41:29.208Z,13.31
2019-05-07T10:43:56.221Z,13.43
2019-05-07T10:46:54.885Z,13.62
2019-05-07T10:49:25.401Z,13.71
2019-05-07T10:51:52.512Z,13.67
2019-05-07T10:54:19.477Z,13.75
2019-05-07T10:56:46.640Z,13.76
2019-05-07T10:59:13.575Z,14.02
2019-05-07T11:02:02.315Z,14.23
2019-05-07T11:04:40.228Z,14.40
2019-05-07T11:07:00.163Z,14.65
2019-05-07T11:10:05.859Z,14.77
2019-05-07T11:12:32.824Z,14.83
2019-05-07T11:15:02.044Z,14.76
2019-05-07T11:17:52.119Z,14.73
2019-05-07T11:20:19.648Z,14.65
2019-05-07T11:22:46.625Z,14.49
2019-05-07T11:25:13.636Z,14.27
2019-05-07T11:27:42.095Z,14.15
2019-05-07T11:30:11.949Z,14.20
2019-05-07T11:32:39.021Z,14.27
2019-05-07T11:35:06.521Z,14.46
2019-05-07T11:37:33.483Z,14.64
2019-05-07T11:40:03.057Z,14.86
2019-05-07T11:42:47.840Z,14.92
2019-05-07T11:45:22.668Z,14.93
2019-05-07T11:47:49.567Z,14.88
2019-05-07T11:50:42.816Z,14.80
2019-05-07T11:53:10.699Z,14.81
2019-05-07T11:55:38.753Z,14.97
2019-05-07T11:58:07.787Z,15.35
2019-05-07T12:00:46.217Z,15.59
2019-05-07T12:03:13.233Z,15.68
2019-05-07T12:05:42.146Z,15.65
2019-05-07T12:08:09.086Z,15.64
2019-05-07T12:10:36.093Z,15.38
2019-05-07T12:13:03.105Z,15.24
2019-05-07T12:15:32.252Z,14.86
2019-05-07T12:17:58.955Z,14.45
2019-05-07T12:20:25.897Z,14.29
2019-05-07T12:22:52.855Z,14.33
2019-05-07T12:25:21.468Z,14.30
2019-05-07T12:27:51.527Z,14.29
2019-05-07T12:30:29.485Z,14.40
2019-05-07T12:33:08.566Z,14.57
2019-05-07T12:35:36.770Z,14.59
2019-05-07T12:38:03.847Z,14.53
2019-05-07T12:40:32.541Z,14.43
2019-05-07T12:43:01.893Z,14.40
2019-05-07T12:45:28.515Z,14.32
2019-05-07T12:47:55.704Z,14.58
2019-05-07T12:50:22.716Z,14.70
2019-05-07T12:53:02.207Z,14.95
2019-05-07T12:55:36.471Z,15.17
2019-05-07T12:58:03.541Z,15.41
2019-05-07T13:01:05.171Z,15.70
2019-05-07T13:03:51.925Z,15.76
2019-05-07T13:06:22.078Z,15.88
2019-05-07T13:08:52.297Z,15.83
2019-05-07T13:11:19.282Z,15.70
2019-05-07T13:13:46.293Z,15.58
2019-05-07T13:16:13.367Z,15.49
2019-05-07T13:18:42.255Z,15.30
2019-05-07T13:21:09.350Z,15.30
2019-05-07T13:23:38.129Z,15.32
2019-05-07T13:26:05.174Z,15.29
2019-05-07T13:28:32.178Z,15.28
2019-05-07T13:30:59.160Z,15.30
2019-05-07T13:33:29.419Z,15.32
2019-05-07T13:35:56.417Z,15.30
2019-05-07T13:38:52.217Z,15.33
2019-05-07T13:41:26.433Z,15.54
2019-05-07T13:44:25.205Z,15.78
2019-05-07T13:47:12.554Z,15.92
2019-05-07T13:50:38.116Z,16.08
2019-05-07T13:53:05.126Z,16.11
2019-05-07T13:55:32.420Z,16.02
2019-05-07T13:57:59.503Z,16.03
2019-05-07T14:00:32.479Z,16.04
2019-05-07T14:02:59.729Z,16.09
2019-05-07T14:05:26.676Z,16.10
2019-05-07T14:07:53.790Z,15.88
2019-05-07T14:10:20.754Z,15.61
2019-05-07T14:12:47.874Z,15.43
2019-05-07T14:15:15.318Z,15.83
2019-05-07T14:17:42.585Z,16.47
2019-05-07T14:20:09.941Z,16.56
2019-05-07T14:22:36.969Z,16.48
2019-05-07T14:25:05.139Z,16.38
2019-05-07T14:27:33.456Z,16.04
2019-05-07T14:30:02.508Z,15.62
2019-05-07T14:32:55.036Z,15.41
2019-05-07T14:35:40.772Z,15.16
2019-05-07T14:38:17.571Z,15.05
2019-05-07T14:40:44.571Z,15.06
2019-05-07T14:43:17.993Z,15.07
2019-05-07T14:45:44.968Z,15.05
2019-05-07T14:48:12.317Z,15.17
2019-05-07T14:50:39.363Z,15.09
2019-05-07T14:53:06.539Z,15.12
2019-05-07T14:55:33.803Z,15.10
2019-05-07T14:58:01.825Z,15.05
2019-05-07T15:00:28.968Z,15.12
2019-05-07T15:02:56.043Z,15.33
2019-05-07T15:05:23.273Z,15.36
2019-05-07T15:07:50.393Z,15.43
2019-05-07T15:10:18.255Z,15.46
2019-05-07T15:12:46.377Z,15.52
2019-05-07T15:15:13.645Z,15.58
2019-05-07T15:18:01.438Z,15.64
2019-05-07T15:20:28.440Z,15.55
2019-05-07T15:23:06.227Z,15.53
2019-05-07T15:25:33.504Z,15.74
2019-05-07T15:28:01.766Z,16.12
2019-05-07T15:30:36.563Z,16.38
2019-05-07T15:33:03.707Z,16.66
2019-05-07T15:35:32.035Z,16.74
2019-05-07T15:37:59.712Z,16.71
2019-05-07T15:40:26.688Z,16.89
2019-05-07T15:42:53.685Z,17.08
2019-05-07T15:45:21.784Z,17.29
2019-05-07T15:48:21.881Z,17.55
2019-05-07T15:50:48.755Z,17.65
2019-05-07T15:57:53.217Z,17.83
2019-05-07T16:00:22.488Z,17.53
2019-05-07T16:02:53.836Z,17.62
2019-05-07T16:05:22.419Z,17.62
2019-05-07T16:07:49.644Z,17.43
2019-05-07T16:10:16.746Z,17.25
2019-05-07T16:12:48.979Z,17.27
2019-05-07T16:15:17.353Z,17.31
2019-05-07T16:17:52.063Z,17.39
2019-05-07T16:20:19.020Z,17.41
2019-05-07T16:22:49.740Z,17.50
2019-05-07T16:25:16.965Z,17.50
2019-05-07T16:27:43.939Z,17.12
2019-05-07T16:30:14.000Z,16.77
2019-05-07T16:32:42.343Z,16.61
2019-05-07T16:35:09.574Z,16.66
2019-05-07T16:37:36.816Z,16.76
2019-05-07T16:40:04.994Z,17.04
2019-05-07T16:42:32.252Z,17.06
2019-05-07T16:44:59.330Z,17.14
2019-05-07T16:47:28.105Z,17.19
2019-05-07T16:49:56.926Z,17.17
2019-05-07T16:52:23.890Z,16.92
2019-05-07T16:54:52.196Z,16.73
2019-05-07T16:57:51.619Z,16.67
2019-05-07T17:00:24.760Z,16.66
2019-05-07T17:02:53.211Z,16.68
2019-05-07T17:05:26.119Z,16.66
2019-05-07T17:08:11.723Z,16.56
2019-05-07T17:10:38.873Z,16.44
2019-05-07T17:13:05.828Z,16.39
2019-05-07T17:15:35.289Z,16.41
2019-05-07T17:18:02.921Z,16.49
2019-05-07T17:20:30.064Z,16.53
2019-05-07T17:23:43.774Z,16.49
2019-05-07T17:25:59.988Z,16.38
2019-05-07T17:28:27.505Z,16.12
2019-05-07T17:30:54.772Z,16.06
2019-05-07T17:33:22.995Z,15.67
2019-05-07T17:35:51.805Z,15.24
2019-05-07T17:38:19.007Z,15.02
2019-05-07T17:40:46.009Z,14.83
2019-05-07T17:43:12.999Z,14.71
2019-05-07T17:45:40.078Z,14.59
2019-05-07T17:48:07.534Z,14.49
2019-05-07T17:50:43.236Z,14.41
2019-05-07T17:56:52.763Z,14.43
2019-05-07T17:59:19.881Z,14.33
2019-05-07T18:02:06.648Z,14.29
2019-05-07T18:04:54.550Z,14.19
2019-05-07T18:07:20.780Z,14.06
2019-05-07T18:09:47.773Z,13.94
2019-05-07T18:12:14.749Z,13.76
2019-05-07T18:14:42.389Z,13.60
2019-05-07T18:17:16.749Z,13.43
2019-05-07T18:19:45.825Z,13.27
2019-05-07T18:22:12.884Z,13.07
2019-05-07T18:24:41.882Z,12.94
2019-05-07T18:27:12.614Z,12.80
2019-05-07T18:29:39.696Z,12.66
2019-05-07T18:32:08.102Z,12.53
2019-05-07T18:34:35.191Z,12.38
2019-05-07T18:37:02.239Z,12.23
2019-05-07T18:39:29.389Z,12.05
2019-05-07T18:41:56.506Z,11.89
2019-05-07T18:44:24.278Z,11.74
2019-05-07T18:46:52.894Z,11.55
2019-05-07T18:49:20.145Z,11.40
2019-05-07T18:51:47.092Z,11.29
2019-05-07T18:54:26.279Z,11.17
2019-05-07T18:56:43.044Z,11.04
2019-05-07T18:59:10.600Z,10.90
2019-05-07T19:01:42.316Z,10.77
2019-05-07T19:04:09.707Z,10.64
2019-05-07T19:06:36.743Z,10.48
2019-05-07T19:09:06.261Z,10.35
2019-05-07T19:11:35.865Z,10.20
2019-05-07T19:14:03.441Z,10.07
2019-05-07T19:16:32.313Z,9.96
2019-05-07T19:18:59.411Z,9.84
2019-05-07T19:21:26.574Z,9.74
2019-05-07T19:23:56.280Z,9.66
2019-05-07T19:26:25.040Z,9.55
2019-05-07T19:28:52.042Z,9.44
2019-05-07T19:31:19.092Z,9.32
2019-05-07T19:33:46.063Z,9.23
2019-05-07T19:36:13.119Z,9.18
2019-05-07T19:38:42.934Z,9.11
2019-05-07T19:41:12.122Z,9.05
2019-05-07T19:43:38.981Z,9.01
2019-05-07T19:46:06.114Z,8.99
2019-05-07T19:48:33.090Z,8.98
2019-05-07T19:51:02.665Z,8.94
2019-05-07T19:53:29.272Z,8.91
2019-05-07T19:56:09.826Z,8.87
2019-05-07T19:58:36.808Z,8.82
2019-05-07T20:01:09.211Z,8.83
2019-05-07T20:03:36.257Z,8.84
2019-05-07T20:06:03.553Z,8.82
2019-05-07T20:08:38.078Z,8.80
2019-05-07T20:11:12.965Z,8.74
2019-05-07T20:13:41.617Z,8.67
2019-05-07T20:16:15.515Z,8.60
2019-05-07T20:18:42.892Z,8.54
2019-05-07T20:21:12.209Z,8.48
2019-05-07T20:23:39.191Z,8.41
2019-05-07T20:26:06.167Z,8.36
2019-05-07T20:28:33.261Z,8.31
2019-05-07T20:31:00.455Z,8.27
2019-05-07T20:33:27.524Z,8.20
2019-05-07T20:35:54.546Z,8.13
2019-05-07T20:38:22.222Z,8.05
2019-05-07T20:40:53.943Z,7.97
2019-05-07T20:43:22.994Z,7.98
2019-05-07T20:45:51.847Z,7.95
2019-05-07T20:48:19.500Z,7.94
2019-05-07T20:50:46.657Z,7.89
2019-05-07T20:53:16.665Z,7.84
2019-05-07T20:55:52.964Z,7.80
2019-05-07T20:58:23.794Z,7.76
2019-05-07T21:00:52.623Z,7.73
2019-05-07T21:03:23.900Z,7.67
2019-05-07T21:05:52.974Z,7.67
2019-05-07T21:08:22.484Z,7.69
2019-05-07T21:10:49.441Z,7.68
2019-05-07T21:13:27.436Z,7.71
2019-05-07T21:15:45.632Z,7.74
2019-05-07T21:18:47.547Z,7.74
2019-05-07T21:21:14.515Z,7.70
2019-05-07T21:23:43.425Z,7.66
2019-05-07T21:26:12.827Z,7.58
2019-05-07T21:28:39.842Z,7.52
2019-05-07T21:31:06.895Z,7.46
2019-05-07T21:33:34.030Z,7.44
2019-05-07T21:36:02.818Z,7.37
2019-05-07T21:38:29.925Z,7.33
2019-05-07T21:40:57.549Z,7.29
2019-05-07T21:43:24.542Z,7.23
2019-05-07T21:45:52.967Z,7.16
2019-05-07T21:48:22.311Z,7.03
2019-05-07T21:50:51.781Z,6.94
2019-05-07T21:53:24.078Z,6.83
2019-05-07T21:56:16.735Z,6.72
2019-05-07T21:59:05.792Z,6.64
2019-05-07T22:01:37.343Z,6.65
2019-05-07T22:04:04.510Z,6.66
2019-05-07T22:06:33.359Z,6.68
2019-05-07T22:09:01.940Z,6.69
2019-05-07T22:11:29.148Z,6.76
2019-05-07T22:13:56.258Z,6.79
2019-05-07T22:16:23.347Z,6.83
2019-05-07T22:18:52.171Z,6.88
2019-05-07T22:21:19.264Z,6.91
2019-05-07T22:23:46.256Z,6.93
2019-05-07T22:26:22.346Z,6.95
2019-05-07T22:28:42.582Z,6.99
2019-05-07T22:31:32.017Z,7.02
2019-05-07T22:34:22.280Z,7.08
2019-05-07T22:36:49.332Z,7.07
2019-05-07T22:39:40.731Z,7.06
2019-05-07T22:42:07.746Z,7.11
2019-05-07T22:44:34.898Z,7.14
2019-05-07T22:47:18.574Z,7.19
2019-05-07T22:49:46.826Z,7.24
2019-05-07T22:52:14.876Z,7.27
2019-05-07T22:54:42.654Z,7.32
2019-05-07T22:57:29.542Z,7.35
2019-05-07T22:59:56.499Z,7.39
2019-05-07T23:02:42.791Z,7.46
2019-05-07T23:05:12.073Z,7.51
2019-05-07T23:07:38.817Z,7.56
2019-05-07T23:10:06.130Z,7.64
2019-05-07T23:12:33.126Z,7.67
2019-05-07T23:15:02.557Z,7.70
2019-05-07T23:17:29.161Z,7.73
2019-05-07T23:19:56.144Z,7.73
2019-05-07T23:22:23.174Z,7.74
2019-05-07T23:24:51.980Z,7.78
2019-05-07T23:27:19.043Z,7.81
2019-05-07T23:29:46.043Z,7.87
2019-05-07T23:32:13.000Z,7.94
2019-05-07T23:34:40.182Z,7.97
2019-05-07T23:37:07.312Z,8.00
2019-05-07T23:39:36.671Z,8.05
2019-05-07T23:42:12.676Z,8.09
2019-05-07T23:44:42.005Z,8.13
2019-05-07T23:47:08.861Z,8.13
2019-05-07T23:49:35.872Z,8.14
2019-05-07T23:52:02.828Z,8.17
2019-05-07T23:54:31.742Z,8.19
2019-05-07T23:57:06.025Z,8.19
2019-05-07T23:59:27.565Z,8.20
